Time;durP1;ratioP1;P1;durP2;ratioP2;P2;SDS_P1;SDS_P2;PMS_P1;PMS_P2;Temp;Humidity;BMP_temperature;BMP_pressure;BME280_temperature;BME280_humidity;BME280_pressure;Samples;Min_cycle;Max_cycle;Signal;HPM_P1;HPM_P2
2022/01/15 00:03:53;;;;;;;138.55;35.03;;;;;;;3.22;100.00;103291.28;10462096;28;20057;-52
2022/01/15 00:08:55;;;;;;;112.90;30.95;;;;;;;3.09;100.00;103295.41;10462290;28;20114;-54
2022/01/15 00:14:12;;;;;;;165.82;38.30;;;;;;;3.13;100.00;103273.91;10460921;28;20489;-53
2022/01/15 00:19:17;;;;;;;151.05;38.28;;;;;;;2.89;100.00;103274.41;10461373;28;20045;-51
2022/01/15 00:24:19;;;;;;;177.02;39.00;;;;;;;2.73;100.00;103263.84;10461496;28;20077;-57
2022/01/15 00:29:21;;;;;;;288.73;45.17;;;;;;;2.64;100.00;103263.72;10461154;28;20057;-56
2022/01/15 00:34:23;;;;;;;192.05;42.17;;;;;;;2.70;100.00;103256.03;10461498;28;20053;-56
2022/01/15 00:39:26;;;;;;;237.25;42.47;;;;;;;2.81;100.00;103250.13;10460443;28;20049;-57
2022/01/15 00:44:28;;;;;;;159.98;40.25;;;;;;;2.73;100.00;103252.63;10460892;28;20045;-53
2022/01/15 00:49:31;;;;;;;210.52;40.88;;;;;;;2.80;100.00;103233.75;10460359;28;20057;-56
2022/01/15 00:54:33;;;;;;;240.35;42.88;;;;;;;2.73;100.00;103235.38;10459976;28;20489;-57
2022/01/15 00:59:36;;;;;;;200.35;38.10;;;;;;;2.74;100.00;103228.47;10459848;28;20099;-57
2022/01/15 01:04:38;;;;;;;153.05;36.63;;;;;;;2.76;100.00;103226.81;10459624;28;20080;-55
2022/01/15 01:20:20;;;;;;;181.80;38.58;;;;;;;2.64;100.00;103217.16;10458953;28;20048;-57
2022/01/15 01:25:27;;;;;;;276.75;46.53;;;;;;;2.55;100.00;103217.88;10458638;28;20049;-53
2022/01/15 01:30:36;;;;;;;128.70;35.72;;;;;;;2.57;100.00;103200.69;10458997;28;20056;-56
2022/01/15 01:35:46;;;;;;;194.82;40.03;;;;;;;2.73;100.00;103217.28;10459154;28;20045;-55
2022/01/15 01:40:50;;;;;;;212.40;41.90;;;;;;;2.36;100.00;103213.28;10458500;28;20053;-56
2022/01/15 01:46:11;;;;;;;195.63;40.28;;;;;;;2.41;100.00;103201.28;10458106;28;20059;-57
2022/01/15 01:51:34;;;;;;;193.93;41.22;;;;;;;2.57;100.00;103203.25;10458544;28;20102;-54
2022/01/15 01:56:37;;;;;;;201.20;40.67;;;;;;;2.38;100.00;103203.81;10457698;28;20561;-57
2022/01/15 02:01:39;;;;;;;232.75;41.67;;;;;;;2.39;100.00;103214.19;10457538;28;20053;-55
2022/01/15 02:06:42;;;;;;;232.10;42.50;;;;;;;2.64;100.00;103208.50;10457220;28;20131;-55
2022/01/15 02:11:45;;;;;;;204.40;42.00;;;;;;;2.57;100.00;103197.19;10457308;28;20052;-56
2022/01/15 02:16:47;;;;;;;250.85;42.70;;;;;;;2.55;100.00;103202.34;10457062;28;20378;-58
2022/01/15 02:26:53;;;;;;;142.10;31.65;;;;;;;2.52;100.00;103194.56;10456767;28;20045;-56
2022/01/15 02:31:56;;;;;;;176.88;34.97;;;;;;;2.51;100.00;103174.72;10456429;28;20078;-53
2022/01/15 02:36:58;;;;;;;98.40;28.15;;;;;;;2.38;100.00;103167.63;10456486;28;20049;-57
2022/01/15 02:42:00;;;;;;;117.18;28.25;;;;;;;2.48;100.00;103166.91;10456331;28;20056;-57
2022/01/15 02:52:06;;;;;;;86.60;23.92;;;;;;;2.65;100.00;103148.19;10456380;28;20053;-55
2022/01/15 02:57:08;;;;;;;93.57;24.70;;;;;;;2.51;100.00;103138.50;10455903;28;20065;-58
2022/01/15 03:02:10;;;;;;;98.30;27.65;;;;;;;2.60;100.00;103141.22;10456035;28;20044;-55
2022/01/15 03:07:12;;;;;;;85.70;25.23;;;;;;;2.55;100.00;103131.66;10455984;28;20057;-55
2022/01/15 03:12:15;;;;;;;82.82;27.42;;;;;;;2.41;100.00;103124.59;10455941;28;20053;-54
2022/01/15 03:17:17;;;;;;;86.68;28.65;;;;;;;2.30;100.00;103113.22;10454617;28;20378;-56
2022/01/15 03:22:20;;;;;;;91.07;30.30;;;;;;;2.40;100.00;103104.75;10455476;28;20439;-57
2022/01/15 03:27:24;;;;;;;112.55;32.80;;;;;;;2.26;100.00;103095.94;10455545;28;20053;-51
2022/01/15 03:32:26;;;;;;;94.50;30.85;;;;;;;2.33;100.00;103087.41;10455579;28;20053;-57
2022/01/15 03:37:28;;;;;;;109.80;32.83;;;;;;;2.41;100.00;103090.97;10455353;28;20053;-56
2022/01/15 03:42:31;;;;;;;116.32;34.60;;;;;;;2.34;100.00;103073.66;10455265;28;20060;-56
2022/01/15 03:47:34;;;;;;;116.72;31.92;;;;;;;2.42;100.00;103078.91;10455515;28;20079;-55
2022/01/15 03:52:36;;;;;;;125.72;36.88;;;;;;;2.42;100.00;103078.91;10462392;28;20437;-56
2022/01/15 03:57:38;;;;;;;130.13;33.15;;;;;;;2.42;100.00;103074.63;10462458;28;20068;-56
2022/01/15 04:02:41;;;;;;;97.80;32.05;;;;;;;2.54;100.00;103068.72;10461264;28;20124;-56
2022/01/15 04:07:44;;;;;;;131.70;35.45;;;;;;;2.44;100.00;103071.16;10460895;28;20512;-58
2022/01/15 04:12:46;;;;;;;99.28;33.83;;;;;;;2.66;100.00;103061.97;10461797;28;20061;-56
2022/01/15 04:17:50;;;;;;;113.70;35.28;;;;;;;2.68;100.00;103061.13;10461618;28;20503;-54
2022/01/15 04:22:53;;;;;;;118.05;34.30;;;;;;;2.64;100.00;103053.31;10461583;28;20057;-57
2022/01/15 04:28:01;;;;;;;143.13;37.17;;;;;;;2.58;100.00;103048.94;10461295;28;20045;-53
2022/01/15 04:33:03;;;;;;;127.22;34.35;;;;;;;2.58;100.00;103038.59;10461282;28;20056;-54
2022/01/15 04:38:10;;;;;;;114.57;35.13;;;;;;;2.69;100.00;103044.78;10460903;28;20049;-58
2022/01/15 04:43:12;;;;;;;138.25;37.70;;;;;;;2.65;100.00;103036.97;10461154;28;20056;-56
2022/01/15 04:48:15;;;;;;;105.45;35.55;;;;;;;2.73;100.00;103025.84;10460686;28;20064;-55
2022/01/15 04:53:17;;;;;;;175.95;45.08;;;;;;;2.87;100.00;103022.53;10460272;28;20056;-58
2022/01/15 04:58:20;;;;;;;184.68;46.45;;;;;;;2.71;100.00;103027.53;10460025;28;20053;-56
2022/01/15 05:03:23;;;;;;;116.60;37.45;;;;;;;2.57;100.00;103023.91;10460022;28;20056;-58
2022/01/15 05:08:26;;;;;;;159.25;42.75;;;;;;;2.69;100.00;103011.16;10458594;28;20080;-58
2022/01/15 05:13:33;;;;;;;156.27;41.97;;;;;;;2.65;100.00;103024.03;10459559;28;20056;-57
2022/01/15 05:18:35;;;;;;;128.88;39.63;;;;;;;2.64;100.00;103005.06;10459097;28;20052;-57
2022/01/15 05:23:38;;;;;;;105.68;35.53;;;;;;;2.64;100.00;103012.81;10459049;28;20060;-52
2022/01/15 05:28:40;;;;;;;117.63;37.28;;;;;;;2.87;100.00;103013.03;10458781;28;20053;-58
2022/01/15 05:33:42;;;;;;;83.07;31.38;;;;;;;2.70;100.00;103012.00;10458729;28;20053;-58
2022/01/15 05:38:45;;;;;;;125.03;38.20;;;;;;;2.68;100.00;102998.19;10458471;28;20056;-56
2022/01/15 05:43:47;;;;;;;138.57;40.30;;;;;;;2.58;100.00;102987.72;10458448;28;20053;-57
2022/01/15 05:48:50;;;;;;;124.72;38.53;;;;;;;2.71;100.00;102993.06;10458398;28;20061;-57
2022/01/15 05:53:52;;;;;;;147.63;41.92;;;;;;;2.58;100.00;102999.81;10457887;28;20056;-53
2022/01/15 05:58:54;;;;;;;173.48;43.08;;;;;;;2.70;100.00;102997.34;10458009;28;20052;-56
2022/01/15 06:03:57;;;;;;;174.32;45.85;;;;;;;2.58;100.00;102981.69;10457712;28;20049;-54
2022/01/15 06:08:59;;;;;;;133.98;41.03;;;;;;;2.64;100.00;102983.47;10457061;28;20531;-58
2022/01/15 06:14:02;;;;;;;174.27;44.67;;;;;;;2.67;100.00;102965.41;10457037;28;20049;-53
2022/01/15 06:19:04;;;;;;;165.60;43.53;;;;;;;2.78;100.00;102964.66;10457412;28;20051;-57
2022/01/15 06:24:07;;;;;;;237.52;47.72;;;;;;;2.74;100.00;102962.91;10457065;28;20045;-56
2022/01/15 06:29:09;;;;;;;235.68;49.38;;;;;;;2.69;100.00;102954.25;10456751;28;20060;-57
2022/01/15 06:34:11;;;;;;;208.00;48.38;;;;;;;2.77;100.00;102949.13;10457006;28;20049;-57
2022/01/15 06:39:14;;;;;;;215.27;46.70;;;;;;;2.74;100.00;102947.41;10456567;28;20045;-58
2022/01/15 06:44:16;;;;;;;152.60;41.15;;;;;;;2.74;100.00;102942.22;10456551;28;20052;-54
2022/01/15 06:49:18;;;;;;;196.63;47.22;;;;;;;2.42;100.00;102934.09;10456401;28;20049;-58
2022/01/15 06:54:21;;;;;;;220.18;46.85;;;;;;;2.48;100.00;102933.31;10456280;28;20053;-57
2022/01/15 06:59:23;;;;;;;256.10;54.33;;;;;;;2.47;100.00;102939.34;10456318;28;20053;-57
2022/01/15 07:04:25;;;;;;;244.88;49.38;;;;;;;2.62;100.00;102936.03;10456242;28;20055;-54
2022/01/15 07:09:28;;;;;;;246.27;50.05;;;;;;;2.56;100.00;102931.69;10456132;28;20049;-58
2022/01/15 07:14:30;;;;;;;240.02;53.58;;;;;;;2.57;100.00;102918.78;10454682;28;20414;-56
2022/01/15 07:19:33;;;;;;;207.70;51.17;;;;;;;2.55;100.00;102930.81;10455359;28;20053;-57
2022/01/15 07:24:35;;;;;;;196.60;45.60;;;;;;;2.53;100.00;102936.81;10459518;28;20378;-55
2022/01/15 07:29:39;;;;;;;198.93;46.45;;;;;;;2.43;100.00;102935.84;10462226;28;20053;-54
2022/01/15 07:34:41;;;;;;;196.48;44.53;;;;;;;2.48;100.00;102934.19;10463810;28;20045;-57
2022/01/15 07:39:43;;;;;;;189.95;42.83;;;;;;;2.48;100.00;102928.16;10463615;28;20053;-56
2022/01/15 07:44:46;;;;;;;252.98;48.35;;;;;;;2.44;100.00;102931.53;10463458;28;20045;-54
2022/01/15 07:49:48;;;;;;;212.00;44.88;;;;;;;2.42;100.00;102934.09;10463113;28;20063;-56
2022/01/15 07:54:51;;;;;;;305.60;54.15;;;;;;;2.36;100.00;102923.72;10462403;28;20059;-57
2022/01/15 07:59:54;;;;;;;250.18;49.05;;;;;;;2.56;100.00;102929.97;10462519;28;20059;-58
2022/01/15 08:04:56;;;;;;;249.25;49.35;;;;;;;2.69;100.00;102924.91;10462065;28;20049;-56
2022/01/15 08:09:59;;;;;;;277.23;46.85;;;;;;;2.60;100.00;102930.84;10461990;28;20052;-56
2022/01/15 08:15:01;;;;;;;292.38;48.20;;;;;;;2.59;100.00;102935.16;10462106;28;20049;-56
2022/01/15 08:20:04;;;;;;;386.70;59.53;;;;;;;2.50;100.00;102916.09;10461548;28;20048;-57
2022/01/15 08:25:08;;;;;;;289.30;48.80;;;;;;;2.56;100.00;102926.53;10461487;28;20099;-56
2022/01/15 08:30:10;;;;;;;204.45;44.35;;;;;;;2.60;100.00;102918.78;10461287;28;20057;-57
2022/01/15 08:35:13;;;;;;;322.08;54.03;;;;;;;2.77;100.00;102920.66;10460591;28;20379;-59
2022/01/15 08:40:19;;;;;;;297.83;53.15;;;;;;;2.75;100.00;102914.63;10460755;28;20045;-58
2022/01/15 08:45:21;;;;;;;336.23;58.38;;;;;;;2.69;100.00;102912.84;10461138;28;20045;-56
2022/01/15 08:50:24;;;;;;;376.35;62.88;;;;;;;2.47;100.00;102905.72;10460329;28;20440;-56
2022/01/15 08:55:29;;;;;;;314.45;58.22;;;;;;;2.68;100.00;102895.59;10460189;28;20448;-56
2022/01/15 09:00:34;;;;;;;303.30;58.38;;;;;;;2.58;100.00;102892.03;10459739;28;20057;-58
2022/01/15 09:05:37;;;;;;;334.08;60.45;;;;;;;2.47;100.00;102888.50;10459846;28;20052;-57
2022/01/15 09:10:41;;;;;;;323.08;53.88;;;;;;;2.42;100.00;102901.38;10459605;28;20049;-56
2022/01/15 09:15:44;;;;;;;271.83;54.58;;;;;;;2.37;100.00;102903.06;10459808;28;20076;-56
2022/01/15 09:20:47;;;;;;;329.17;58.42;;;;;;;2.26;100.00;102896.91;10459036;28;20041;-55
2022/01/15 09:25:50;;;;;;;254.43;51.30;;;;;;;2.26;100.00;102902.06;10458878;28;20435;-58
2022/01/15 09:30:53;;;;;;;298.13;52.22;;;;;;;2.18;100.00;102893.34;10458622;28;20055;-54
2022/01/15 09:35:55;;;;;;;277.63;49.28;;;;;;;2.38;100.00;102901.31;10457849;28;20053;-57
2022/01/15 09:40:58;;;;;;;218.65;47.42;;;;;;;2.05;100.00;102894.91;10457375;28;20128;-59
2022/01/15 09:46:00;;;;;;;227.98;48.22;;;;;;;1.94;100.00;102893.94;10457316;28;20375;-54
2022/01/15 09:51:03;;;;;;;182.70;43.65;;;;;;;1.94;100.00;102891.38;10456771;28;20118;-57
2022/01/15 09:56:06;;;;;;;139.48;38.38;;;;;;;2.00;100.00;102887.13;10456604;28;20045;-54
2022/01/15 10:01:09;;;;;;;143.43;42.10;;;;;;;1.91;100.00;102881.84;10457480;28;20053;-57
2022/01/15 10:06:11;;;;;;;142.57;38.17;;;;;;;1.99;100.00;102880.22;10458192;28;20132;-59
2022/01/15 10:11:14;;;;;;;151.75;36.60;;;;;;;1.83;100.00;102884.34;10457844;28;20052;-58
2022/01/15 10:16:17;;;;;;;120.90;35.15;;;;;;;1.96;100.00;102876.75;10456473;28;20052;-57
2022/01/15 10:21:26;;;;;;;139.68;35.30;;;;;;;1.81;100.00;102887.75;10456525;28;20485;-58
2022/01/15 10:26:35;;;;;;;135.95;36.85;;;;;;;1.85;100.00;102874.91;10457089;28;20045;-57
2022/01/15 10:31:43;;;;;;;127.35;37.55;;;;;;;1.92;100.00;102881.00;10456534;28;20132;-55
2022/01/15 10:36:45;;;;;;;135.38;38.20;;;;;;;1.75;100.00;102880.81;10456638;28;20052;-58
2022/01/15 10:41:48;;;;;;;136.15;39.22;;;;;;;2.02;100.00;102882.84;10455102;28;20427;-56
2022/01/15 10:46:50;;;;;;;174.10;43.70;;;;;;;1.99;100.00;102869.03;10456545;28;20054;-58
2022/01/15 10:52:17;;;;;;;195.77;44.72;;;;;;;2.08;100.00;102866.53;10457029;28;20374;-57
2022/01/15 10:57:23;;;;;;;175.50;45.33;;;;;;;2.09;100.00;102867.44;10455474;28;20061;-56
2022/01/15 11:02:25;;;;;;;254.00;47.67;;;;;;;2.19;100.00;102870.13;10464712;28;20041;-56
2022/01/15 11:07:36;;;;;;;169.73;41.17;;;;;;;2.00;100.00;102857.81;10464464;28;20045;-58
2022/01/15 11:12:39;;;;;;;171.15;45.00;;;;;;;1.89;100.00;102849.97;10464321;28;20059;-57
2022/01/15 11:17:42;;;;;;;181.40;40.85;;;;;;;1.97;100.00;102838.00;10464060;28;20488;-55
2022/01/15 11:22:47;;;;;;;163.90;43.28;;;;;;;1.89;100.00;102826.72;10463551;28;20055;-51
2022/01/15 11:27:50;;;;;;;300.50;52.30;;;;;;;1.97;100.00;102826.81;10462502;28;20056;-58
2022/01/15 11:32:53;;;;;;;220.02;48.78;;;;;;;1.77;100.00;102826.59;10463829;28;20515;-54
2022/01/15 11:37:56;;;;;;;168.63;44.47;;;;;;;1.96;100.00;102822.47;10462207;28;20049;-56
2022/01/15 11:43:25;;;;;;;117.97;36.17;;;;;;;2.06;100.00;102815.72;10463062;28;20382;-57
2022/01/15 11:48:29;;;;;;;131.40;42.45;;;;;;;1.85;100.00;102814.63;10463330;28;20052;-58
2022/01/15 11:53:52;;;;;;;150.65;40.95;;;;;;;1.79;100.00;102810.25;10462630;28;20049;-58
2022/01/15 11:58:57;;;;;;;152.57;40.97;;;;;;;1.84;100.00;102800.81;10462375;28;20408;-56
2022/01/15 12:04:34;;;;;;;181.55;44.67;;;;;;;1.60;100.00;102795.41;10460757;28;20382;-57
2022/01/15 12:09:48;;;;;;;108.00;41.08;;;;;;;1.93;100.00;102791.44;10460823;28;20045;-55
2022/01/15 12:14:59;;;;;;;177.18;43.08;;;;;;;1.89;100.00;102785.38;10461356;28;20382;-56
2022/01/15 12:20:06;;;;;;;149.73;44.28;;;;;;;1.89;100.00;102774.19;10461923;28;20059;-57
2022/01/15 12:25:11;;;;;;;134.00;43.42;;;;;;;1.62;100.00;102773.91;10460251;28;20048;-57
2022/01/15 12:30:16;;;;;;;181.05;45.92;;;;;;;1.41;100.00;102759.03;10462061;28;20056;-57
2022/01/15 12:35:22;;;;;;;151.95;44.47;;;;;;;1.73;100.00;102747.31;10461109;28;20049;-56
2022/01/15 12:40:54;;;;;;;188.98;48.90;;;;;;;1.42;100.00;102741.81;10460774;28;20048;-56
2022/01/15 12:45:58;;;;;;;126.18;42.67;;;;;;;1.81;100.00;102735.34;10459647;28;20052;-58
2022/01/15 12:51:03;;;;;;;138.80;46.38;;;;;;;1.67;100.00;102724.88;10460391;28;20060;-55
2022/01/15 12:56:11;;;;;;;130.82;46.65;;;;;;;1.54;100.00;102716.13;10461110;28;20053;-53
2022/01/15 13:01:20;;;;;;;204.65;49.05;;;;;;;1.53;100.00;102711.84;10460081;28;20049;-57
2022/01/15 13:06:26;;;;;;;149.32;45.50;;;;;;;1.72;100.00;102707.72;10460208;28;20124;-57
2022/01/15 13:11:31;;;;;;;115.70;37.75;;;;;;;1.55;100.00;102710.13;10459780;28;20390;-53
2022/01/15 13:16:33;;;;;;;131.20;41.33;;;;;;;1.63;100.00;102700.75;10459439;28;20056;-56
2022/01/15 13:21:37;;;;;;;119.68;36.60;;;;;;;1.55;100.00;102698.94;10458339;28;20052;-57
2022/01/15 13:26:48;;;;;;;86.40;35.05;;;;;;;1.78;100.00;102694.88;10459638;28;20056;-57
2022/01/15 13:31:52;;;;;;;102.53;36.47;;;;;;;1.75;100.00;102696.53;10459114;28;20073;-53
2022/01/15 13:36:55;;;;;;;96.47;38.55;;;;;;;1.67;100.00;102687.00;10458942;28;20396;-55
2022/01/15 13:41:57;;;;;;;163.60;45.20;;;;;;;1.64;100.00;102681.81;10458480;28;20048;-58
2022/01/15 13:47:11;;;;;;;110.13;38.53;;;;;;;1.57;100.00;102692.09;10458372;28;20049;-57
2022/01/15 13:57:36;;;;;;;161.20;43.45;;;;;;;1.75;100.00;102669.03;10457300;28;20049;-57
2022/01/15 14:02:38;;;;;;;104.18;38.83;;;;;;;1.90;100.00;102654.50;10457785;28;20048;-57
2022/01/15 14:07:42;;;;;;;106.75;41.00;;;;;;;1.58;100.00;102653.38;10457606;28;20059;-55
2022/01/15 14:12:44;;;;;;;121.43;42.15;;;;;;;1.75;100.00;102650.06;10457395;28;20056;-54
2022/01/15 14:18:00;;;;;;;114.32;42.53;;;;;;;1.76;100.00;102647.50;10457332;28;20589;-54
2022/01/15 14:23:05;;;;;;;116.43;42.35;;;;;;;1.94;100.00;102633.03;10457122;28;20045;-53
2022/01/15 14:28:12;;;;;;;110.93;42.92;;;;;;;1.89;100.00;102621.78;10456891;28;20428;-56
2022/01/15 14:33:14;;;;;;;144.95;46.70;;;;;;;1.70;100.00;102624.22;10456348;28;20053;-55
2022/01/15 14:38:16;;;;;;;109.85;45.47;;;;;;;1.54;100.00;102612.88;10456622;28;20045;-55
2022/01/15 14:43:19;;;;;;;201.93;49.38;;;;;;;1.45;100.00;102610.22;10457269;28;20045;-56
2022/01/15 14:48:23;;;;;;;173.18;51.33;;;;;;;1.46;100.00;102605.06;10456352;28;20064;-56
2022/01/15 14:53:26;;;;;;;127.18;47.65;;;;;;;1.74;100.00;102594.13;10456411;28;20060;-58
2022/01/15 14:58:29;;;;;;;119.22;47.30;;;;;;;1.59;100.00;102597.41;10456453;28;20067;-55
2022/01/15 15:03:32;;;;;;;102.57;44.40;;;;;;;1.80;100.00;102602.78;10456212;28;20049;-55
2022/01/15 15:08:35;;;;;;;119.05;47.75;;;;;;;1.77;100.00;102604.47;10455943;28;20060;-54
2022/01/15 15:13:37;;;;;;;88.45;40.13;;;;;;;1.82;100.00;102606.22;10455954;28;20075;-55
2022/01/15 15:18:40;;;;;;;121.25;47.13;;;;;;;1.53;100.00;102608.56;10455668;28;20052;-56
2022/01/15 15:23:43;;;;;;;105.15;43.03;;;;;;;1.90;100.00;102608.88;10456196;28;20515;-55
2022/01/15 15:28:49;;;;;;;111.30;44.22;;;;;;;1.84;100.00;102601.06;10455788;28;20075;-58
2022/01/15 15:33:54;;;;;;;113.57;45.58;;;;;;;1.48;100.00;102594.75;10456537;28;20053;-56
2022/01/15 15:39:02;;;;;;;121.93;47.05;;;;;;;1.34;100.00;102594.59;10455521;28;20056;-54
2022/01/15 15:44:04;;;;;;;101.57;42.03;;;;;;;1.66;100.00;102589.75;10456476;28;20508;-53
2022/01/15 15:49:07;;;;;;;123.63;47.63;;;;;;;1.58;100.00;102595.69;10462982;28;20048;-57
2022/01/15 15:54:09;;;;;;;133.40;45.28;;;;;;;1.65;100.00;102588.00;10462602;28;20057;-55
2022/01/15 15:59:11;;;;;;;120.13;46.00;;;;;;;1.60;100.00;102581.09;10462812;28;20056;-57
2022/01/15 16:04:14;;;;;;;110.80;44.83;;;;;;;1.99;100.00;102572.78;10463113;28;20056;-53
2022/01/15 16:09:16;;;;;;;126.10;47.10;;;;;;;1.41;100.00;102580.03;10462198;28;20049;-55
2022/01/15 16:14:20;;;;;;;118.68;46.97;;;;;;;1.58;100.00;102569.88;10461841;28;20053;-56
2022/01/15 16:19:22;;;;;;;105.85;43.78;;;;;;;1.62;100.00;102561.31;10461547;28;20493;-56
2022/01/15 16:24:24;;;;;;;94.50;41.95;;;;;;;1.84;100.00;102552.84;10461530;28;20075;-54
2022/01/15 16:29:35;;;;;;;110.32;43.45;;;;;;;1.72;100.00;102557.94;10461724;28;20055;-52
2022/01/15 16:34:37;;;;;;;105.18;43.92;;;;;;;1.60;100.00;102552.69;10460063;28;20447;-58
2022/01/15 16:39:40;;;;;;;132.43;48.08;;;;;;;1.50;100.00;102546.59;10462395;28;20045;-56
2022/01/15 16:44:42;;;;;;;113.30;45.17;;;;;;;1.72;100.00;102534.69;10460473;28;20049;-56
2022/01/15 16:49:45;;;;;;;114.90;44.60;;;;;;;1.75;100.00;102526.09;10460795;28;20045;-56
2022/01/15 16:54:47;;;;;;;100.07;44.03;;;;;;;1.57;100.00;102521.69;10460600;28;20060;-57
2022/01/15 16:59:50;;;;;;;133.70;47.00;;;;;;;1.56;100.00;102519.94;10460245;28;20057;-55
2022/01/15 17:04:52;;;;;;;125.40;45.53;;;;;;;1.50;100.00;102502.69;10460098;28;20057;-55
2022/01/15 17:09:55;;;;;;;105.15;44.42;;;;;;;1.52;100.00;102506.16;10459836;28;20059;-53
2022/01/15 17:14:57;;;;;;;122.38;45.90;;;;;;;1.61;100.00;102503.63;10459745;28;20049;-56
2022/01/15 17:20:00;;;;;;;119.05;47.70;;;;;;;1.72;100.00;102500.28;10460002;28;20049;-55
2022/01/15 17:25:05;;;;;;;112.35;44.85;;;;;;;1.43;100.00;102503.47;10459287;28;20056;-57
2022/01/15 17:30:10;;;;;;;125.75;43.63;;;;;;;1.51;100.00;102491.50;10459083;28;20151;-57
2022/01/15 17:35:13;;;;;;;131.43;44.65;;;;;;;1.40;100.00;102488.00;10458029;28;20052;-58
2022/01/15 17:40:15;;;;;;;112.30;44.70;;;;;;;1.41;100.00;102490.59;10458365;28;20049;-53
2022/01/15 17:45:17;;;;;;;121.72;46.28;;;;;;;1.55;100.00;102476.91;10458885;28;20052;-55
2022/01/15 17:50:20;;;;;;;114.10;45.25;;;;;;;1.41;100.00;102477.69;10458181;28;20489;-55
2022/01/15 17:55:23;;;;;;;99.82;43.13;;;;;;;1.53;100.00;102474.31;10458871;28;20049;-55
2022/01/15 18:00:25;;;;;;;128.30;47.47;;;;;;;1.70;100.00;102481.31;10457982;28;20057;-56
2022/01/15 18:05:28;;;;;;;113.05;45.65;;;;;;;1.40;100.00;102472.50;10457522;28;20048;-55
2022/01/15 18:10:30;;;;;;;122.72;46.08;;;;;;;1.53;100.00;102470.84;10456454;28;20487;-57
2022/01/15 18:15:33;;;;;;;143.38;50.35;;;;;;;1.47;100.00;102467.38;10457468;28;20074;-56
2022/01/15 18:20:35;;;;;;;134.00;48.10;;;;;;;1.38;100.00;102462.16;10457100;28;20045;-57
2022/01/15 18:25:38;;;;;;;141.40;49.22;;;;;;;1.24;100.00;102466.34;10457133;28;20064;-57
2022/01/15 18:30:40;;;;;;;119.50;45.60;;;;;;;1.43;100.00;102467.34;10456230;28;20053;-53
2022/01/15 18:35:43;;;;;;;100.60;43.13;;;;;;;1.41;100.00;102463.88;10456245;28;20067;-57
2022/01/15 18:40:45;;;;;;;110.80;42.83;;;;;;;1.27;100.00;102472.38;10456465;28;20045;-53
2022/01/15 18:45:47;;;;;;;136.90;48.15;;;;;;;1.06;100.00;102478.25;10456479;28;20052;-56
2022/01/15 18:50:51;;;;;;;110.10;44.53;;;;;;;1.14;100.00;102470.56;10456419;28;20401;-55
2022/01/15 18:55:54;;;;;;;106.43;44.38;;;;;;;1.21;100.00;102464.63;10456768;28;20048;-57
2022/01/15 19:00:57;;;;;;;140.55;47.00;;;;;;;1.12;100.00;102477.44;10456524;28;20057;-57
2022/01/15 19:06:00;;;;;;;155.50;48.97;;;;;;;1.33;100.00;102499.09;10456529;28;20041;-53
2022/01/15 19:11:02;;;;;;;124.70;47.15;;;;;;;1.32;100.00;102539.53;10455968;28;20049;-52
2022/01/15 19:16:05;;;;;;;175.32;52.33;;;;;;;1.44;100.00;102629.13;10456819;28;20064;-53
2022/01/15 19:21:09;;;;;;;103.97;47.20;;;;;;;1.64;100.00;102594.03;10462861;28;20044;-57
2022/01/15 19:26:12;;;;;;;153.82;50.13;;;;;;;1.41;100.00;102555.13;10463950;28;20053;-56
2022/01/15 19:31:14;;;;;;;167.18;51.75;;;;;;;1.27;100.00;102441.44;10464149;28;20059;-54
2022/01/15 19:36:16;;;;;;;141.57;46.30;;;;;;;1.38;100.00;102350.31;10463154;28;20095;-56
2022/01/15 19:41:19;;;;;;;131.70;46.30;;;;;;;1.11;100.00;102357.03;10463013;28;20485;-55
2022/01/15 19:46:21;;;;;;;125.80;44.40;;;;;;;1.07;100.00;102415.47;10462368;28;20049;-56
2022/01/15 19:51:24;;;;;;;132.65;46.92;;;;;;;1.20;100.00;102420.75;10462951;28;20053;-56
2022/01/15 19:56:27;;;;;;;132.10;49.25;;;;;;;1.17;100.00;102449.09;10463221;28;20049;-54
2022/01/15 20:01:30;;;;;;;98.25;42.17;;;;;;;1.39;100.00;102434.63;10462003;28;20432;-55
2022/01/15 20:06:33;;;;;;;111.07;44.05;;;;;;;1.13;100.00;102372.50;10462937;28;20051;-57
2022/01/15 20:11:36;;;;;;;130.85;44.25;;;;;;;1.19;100.00;102372.56;10462176;28;20075;-52
2022/01/15 20:16:52;;;;;;;125.75;46.22;;;;;;;1.14;100.00;102375.09;10461922;28;20412;-55
2022/01/15 20:21:55;;;;;;;122.10;47.25;;;;;;;1.39;100.00;102411.41;10461734;28;20048;-55
2022/01/15 20:26:57;;;;;;;125.43;43.75;;;;;;;1.54;100.00;102365.03;10461421;28;20409;-57
2022/01/15 20:32:00;;;;;;;121.72;46.00;;;;;;;1.40;100.00;102387.34;10461570;28;20452;-50
2022/01/15 20:37:02;;;;;;;225.35;49.13;;;;;;;1.19;100.00;102377.72;10461226;28;20535;-55
2022/01/15 20:42:05;;;;;;;97.78;44.35;;;;;;;1.23;100.00;102375.19;10461046;28;20051;-54
2022/01/15 20:47:07;;;;;;;263.35;58.33;;;;;;;1.21;100.00;102420.75;10460795;28;20531;-55
2022/01/15 20:52:10;;;;;;;118.15;44.67;;;;;;;1.25;100.00;102364.88;10460479;28;20493;-56
2022/01/15 20:57:12;;;;;;;176.27;50.03;;;;;;;1.21;100.00;102360.53;10460502;28;20052;-58
2022/01/15 21:02:16;;;;;;;154.10;43.60;;;;;;;1.41;100.00;102356.38;10460117;28;20477;-54
2022/01/15 21:07:18;;;;;;;136.45;49.63;;;;;;;1.11;100.00;102336.41;10460396;28;20060;-57
2022/01/15 21:12:22;;;;;;;119.32;45.25;;;;;;;1.38;100.00;102363.22;10460409;28;20508;-56
2022/01/15 21:17:24;;;;;;;132.65;45.78;;;;;;;0.96;100.00;102354.31;10459685;28;20056;-55
2022/01/15 21:22:26;;;;;;;129.93;45.78;;;;;;;1.25;100.00;102367.44;10459328;28;20405;-53
2022/01/15 21:27:29;;;;;;;165.52;49.60;;;;;;;1.63;100.00;102385.75;10459053;28;20516;-51
2022/01/15 21:32:32;;;;;;;112.80;43.35;;;;;;;1.24;100.00;102369.16;10458942;28;20594;-56
2022/01/15 21:37:36;;;;;;;121.82;46.70;;;;;;;1.27;100.00;102373.47;10458839;28;20075;-56
2022/01/15 21:42:39;;;;;;;107.78;45.22;;;;;;;1.53;100.00;102381.38;10457990;28;20049;-53
2022/01/15 21:47:42;;;;;;;122.45;47.55;;;;;;;1.42;100.00;102370.97;10459346;28;20045;-56
2022/01/15 21:52:44;;;;;;;138.57;50.05;;;;;;;1.30;100.00;102376.09;10458341;28;20053;-55
2022/01/15 21:57:46;;;;;;;129.90;46.85;;;;;;;1.62;100.00;102384.00;10457924;28;20492;-53
2022/01/15 22:02:49;;;;;;;158.88;48.50;;;;;;;1.32;100.00;102386.41;10457739;28;20048;-53
2022/01/15 22:07:51;;;;;;;126.03;44.33;;;;;;;1.46;100.00;102393.41;10457827;28;20564;-55
2022/01/15 22:12:55;;;;;;;130.88;45.60;;;;;;;1.40;100.00;102408.84;10457517;28;20049;-53
2022/01/15 22:17:57;;;;;;;82.00;37.67;;;;;;;1.40;100.00;102415.72;10457468;28;20041;-52
2022/01/15 22:22:59;;;;;;;98.03;41.85;;;;;;;1.83;100.00;102406.50;10457399;28;20044;-56
2022/01/15 22:28:03;;;;;;;129.10;47.45;;;;;;;1.57;100.00;102388.28;10457599;28;20057;-55
2022/01/15 22:33:07;;;;;;;131.85;46.53;;;;;;;1.63;100.00;102375.41;10457082;28;20135;-56
2022/01/15 22:38:10;;;;;;;107.45;43.72;;;;;;;1.16;100.00;102355.34;10456823;28;20049;-56
2022/01/15 22:43:12;;;;;;;124.45;45.97;;;;;;;1.16;100.00;102364.78;10456640;28;20060;-55
2022/01/15 22:48:14;;;;;;;106.90;44.20;;;;;;;1.24;100.00;102365.72;10456548;28;20400;-54
2022/01/15 22:53:19;;;;;;;117.03;43.55;;;;;;;1.37;100.00;102354.63;10459947;28;20405;-57
2022/01/15 22:58:22;;;;;;;106.93;43.00;;;;;;;1.10;100.00;102345.00;10470245;28;20075;-55